Time;durP1;ratioP1;P1;durP2;ratioP2;P2;SDS_P1;SDS_P2;PMS_P1;PMS_P2;Temp;Humidity;BMP_temperature;BMP_pressure;BME280_temperature;BME280_humidity;BME280_pressure;Samples;Min_cycle;Max_cycle;Signal;HPM_P1;HPM_P2
2022/06/27 00:00:49;;;;;;;11.10;3.55;;;17.00;99.90;;;;;;5071004;28;20072;-54
2022/06/27 00:03:15;;;;;;;6.15;2.88;;;17.10;99.90;;;;;;5070928;28;20482;-55
2022/06/27 00:05:41;;;;;;;7.55;3.22;;;17.10;99.90;;;;;;5071023;28;20100;-55
2022/06/27 00:08:07;;;;;;;7.18;3.20;;;17.40;99.90;;;;;;5070999;28;20028;-56
2022/06/27 00:10:33;;;;;;;9.45;3.65;;;17.60;99.90;;;;;;5070908;28;20024;-55
2022/06/27 00:12:59;;;;;;;6.25;3.55;;;17.70;99.90;;;;;;5071391;28;20112;-56
2022/06/27 00:15:25;;;;;;;7.50;3.35;;;17.60;99.90;;;;;;5071134;28;20115;-56
2022/06/27 00:17:50;;;;;;;6.85;3.10;;;17.70;99.90;;;;;;5070804;28;20489;-55
2022/06/27 00:20:16;;;;;;;8.52;3.03;;;17.70;99.90;;;;;;5070827;28;20024;-55
2022/06/27 00:22:42;;;;;;;4.82;2.70;;;17.40;99.90;;;;;;5070782;28;20101;-56
2022/06/27 00:25:08;;;;;;;6.65;2.97;;;17.40;99.90;;;;;;5071264;28;20021;-61
2022/06/27 00:27:34;;;;;;;7.18;2.70;;;17.10;99.90;;;;;;5070668;28;20078;-55
2022/06/27 00:29:59;;;;;;;7.57;3.17;;;17.10;99.90;;;;;;5070821;28;20020;-55
2022/06/27 00:32:26;;;;;;;6.93;3.10;;;17.10;99.90;;;;;;5071752;28;20061;-56
2022/06/27 00:34:52;;;;;;;10.98;3.38;;;17.20;99.90;;;;;;5074878;28;20032;-55
2022/06/27 00:37:18;;;;;;;7.82;3.15;;;16.90;99.90;;;;;;5074656;28;20024;-55
2022/06/27 00:39:43;;;;;;;5.85;3.65;;;17.00;99.90;;;;;;5074732;28;20416;-55
2022/06/27 00:42:09;;;;;;;7.32;3.17;;;17.10;99.90;;;;;;5074308;28;20469;-56
2022/06/27 00:44:37;;;;;;;11.07;3.67;;;17.10;99.90;;;;;;5074234;28;20025;-56
2022/06/27 00:47:05;;;;;;;9.80;3.30;;;17.00;99.90;;;;;;5074364;28;20021;-55
2022/06/27 00:49:31;;;;;;;6.28;3.25;;;16.90;99.90;;;;;;5073997;28;20075;-56
2022/06/27 00:51:57;;;;;;;6.05;3.00;;;16.90;99.90;;;;;;5074539;28;20099;-56
2022/06/27 00:54:24;;;;;;;6.75;3.30;;;16.80;99.90;;;;;;5073906;28;20035;-55
2022/06/27 00:56:51;;;;;;;6.40;4.00;;;16.70;99.90;;;;;;5074171;28;20098;-55
2022/06/27 00:59:17;;;;;;;8.32;3.40;;;16.90;99.90;;;;;;5074271;28;20025;-56
2022/06/27 01:01:43;;;;;;;7.57;3.90;;;16.90;99.90;;;;;;5073771;28;20024;-55
2022/06/27 01:04:09;;;;;;;6.25;4.05;;;17.00;99.90;;;;;;5074079;28;20035;-55
2022/06/27 01:06:34;;;;;;;9.57;3.75;;;17.00;99.90;;;;;;5074052;28;20033;-57
2022/06/27 01:09:00;;;;;;;7.95;3.40;;;17.00;99.90;;;;;;5073848;28;20533;-56
2022/06/27 01:11:25;;;;;;;9.95;3.50;;;17.10;99.90;;;;;;5074325;28;20621;-55
2022/06/27 01:13:51;;;;;;;6.18;3.05;;;17.00;99.90;;;;;;5073775;28;20028;-56
2022/06/27 01:16:18;;;;;;;7.00;3.60;;;17.00;99.90;;;;;;5073962;28;20035;-55
2022/06/27 01:18:44;;;;;;;8.27;3.28;;;17.00;99.90;;;;;;5074027;28;20547;-61
2022/06/27 01:21:25;;;;;;;5.45;3.08;;;17.00;99.90;;;;;;5073970;28;20078;-56
2022/06/27 01:23:51;;;;;;;6.00;3.22;;;17.20;99.90;;;;;;5073371;28;20020;-56
2022/06/27 01:26:21;;;;;;;6.20;3.30;;;17.10;99.90;;;;;;5073850;28;20024;-55
2022/06/27 01:28:46;;;;;;;7.47;3.60;;;17.10;99.90;;;;;;5073933;28;20025;-55
2022/06/27 01:31:13;;;;;;;5.45;3.25;;;17.10;99.90;;;;;;5073651;28;20027;-55
2022/06/27 01:33:39;;;;;;;4.97;3.28;;;17.30;99.90;;;;;;5073829;28;20032;-55
2022/06/27 01:38:51;;;;;;;8.10;3.95;;;17.50;99.90;;;;;;5074088;28;20085;-55
2022/06/27 01:41:17;;;;;;;7.47;4.00;;;17.40;99.90;;;;;;5072222;28;20059;-55
2022/06/27 01:43:44;;;;;;;11.02;3.85;;;17.30;99.90;;;;;;5073831;28;20025;-55
2022/06/27 01:46:10;;;;;;;9.48;3.42;;;17.40;99.90;;;;;;5073600;28;20416;-55
2022/06/27 01:48:38;;;;;;;8.20;3.35;;;17.10;99.90;;;;;;5073736;28;20074;-55
2022/06/27 01:51:03;;;;;;;9.63;3.65;;;16.90;99.90;;;;;;5073273;28;20036;-55
2022/06/27 01:53:29;;;;;;;8.27;3.78;;;17.00;99.90;;;;;;5073614;28;20016;-55
2022/06/27 01:55:55;;;;;;;8.68;3.92;;;17.10;99.90;;;;;;5073262;28;20048;-55
2022/06/27 01:58:21;;;;;;;6.25;4.20;;;17.00;99.90;;;;;;5073257;28;20020;-55
2022/06/27 02:00:47;;;;;;;9.50;3.80;;;16.90;99.90;;;;;;5071950;28;20040;-55
2022/06/27 02:03:13;;;;;;;9.65;3.80;;;16.80;99.90;;;;;;5072973;28;20016;-55
2022/06/27 02:05:38;;;;;;;6.10;3.97;;;16.70;99.90;;;;;;5073442;28;20100;-55
2022/06/27 02:08:04;;;;;;;7.75;3.80;;;16.60;99.90;;;;;;5073022;28;20108;-55
2022/06/27 02:10:31;;;;;;;10.23;3.80;;;16.50;99.90;;;;;;5073167;28;20074;-55
2022/06/27 02:12:56;;;;;;;6.88;4.03;;;16.40;99.90;;;;;;5073044;28;20024;-55
2022/06/27 02:15:23;;;;;;;5.57;3.90;;;16.40;99.90;;;;;;5073166;28;20551;-55
2022/06/27 02:17:49;;;;;;;10.65;4.03;;;16.30;99.90;;;;;;5072747;28;20028;-55
2022/06/27 02:20:15;;;;;;;7.10;4.72;;;16.40;99.90;;;;;;5072953;28;20535;-54
2022/06/27 02:22:40;;;;;;;6.97;4.13;;;16.50;99.90;;;;;;5072758;28;20078;-55
2022/06/27 02:25:07;;;;;;;10.00;4.65;;;16.50;99.90;;;;;;5073001;28;20031;-55
2022/06/27 02:27:36;;;;;;;8.55;5.10;;;16.70;99.90;;;;;;5072610;28;20024;-55
2022/06/27 02:30:03;;;;;;;10.65;4.10;;;16.70;99.90;;;;;;5072553;28;20056;-55
2022/06/27 02:32:29;;;;;;;8.73;4.50;;;16.70;99.90;;;;;;5072682;28;20556;-55
2022/06/27 02:34:57;;;;;;;14.52;4.13;;;16.60;99.90;;;;;;5071220;28;20111;-56
2022/06/27 02:37:24;;;;;;;6.00;3.97;;;16.50;99.90;;;;;;5072342;28;20233;-54
2022/06/27 02:39:52;;;;;;;10.18;3.90;;;16.30;99.90;;;;;;5072280;28;20025;-55
2022/06/27 02:42:21;;;;;;;8.30;3.60;;;16.40;99.90;;;;;;5072299;28;20024;-54
2022/06/27 02:44:50;;;;;;;10.07;4.10;;;16.30;99.90;;;;;;5072419;28;20021;-56
2022/06/27 02:47:21;;;;;;;8.13;4.15;;;16.40;99.90;;;;;;5072186;28;20488;-55
2022/06/27 02:49:47;;;;;;;6.80;4.40;;;16.60;99.90;;;;;;5072486;28;20024;-55
2022/06/27 02:52:22;;;;;;;10.57;4.60;;;16.50;99.90;;;;;;5071998;28;20036;-55
2022/06/27 02:54:53;;;;;;;9.35;4.60;;;16.50;99.90;;;;;;5071496;28;20097;-55
2022/06/27 02:57:32;;;;;;;8.90;4.03;;;16.50;99.90;;;;;;5071905;28;20033;-55
2022/06/27 03:00:00;;;;;;;5.93;3.90;;;16.40;99.90;;;;;;5071792;28;20020;-55
2022/06/27 03:02:28;;;;;;;7.00;4.13;;;16.40;99.90;;;;;;5071740;28;20028;-55
2022/06/27 03:04:55;;;;;;;8.20;4.40;;;16.50;99.90;;;;;;5071830;28;20025;-55
2022/06/27 03:07:21;;;;;;;9.10;3.97;;;16.60;99.90;;;;;;5070237;28;20028;-55
2022/06/27 03:09:46;;;;;;;8.02;4.15;;;16.50;99.90;;;;;;5071856;28;20031;-55
2022/06/27 03:12:12;;;;;;;7.28;4.30;;;16.50;99.90;;;;;;5071608;28;20025;-55
2022/06/27 03:14:38;;;;;;;8.05;4.63;;;16.60;99.90;;;;;;5071955;28;20021;-55
2022/06/27 03:17:04;;;;;;;8.65;4.70;;;16.60;99.90;;;;;;5071420;28;20103;-55
2022/06/27 03:19:30;;;;;;;9.73;4.32;;;16.50;99.90;;;;;;5070228;28;20435;-55
2022/06/27 03:21:56;;;;;;;8.13;4.47;;;16.30;99.90;;;;;;5071560;28;20032;-55
2022/06/27 03:24:22;;;;;;;7.03;3.95;;;16.10;99.90;;;;;;5071237;28;20017;-55
2022/06/27 03:26:48;;;;;;;7.97;3.63;;;16.00;99.90;;;;;;5071893;28;20099;-55
2022/06/27 03:29:14;;;;;;;7.57;4.55;;;15.90;99.90;;;;;;5071462;28;20060;-55
2022/06/27 03:31:40;;;;;;;8.68;4.57;;;15.90;99.90;;;;;;5071652;28;20488;-55
2022/06/27 03:34:06;;;;;;;11.43;4.57;;;15.90;99.90;;;;;;5071310;28;20512;-55
2022/06/27 03:36:31;;;;;;;10.18;5.43;;;16.00;99.90;;;;;;5071674;28;20035;-56
2022/06/27 03:38:57;;;;;;;8.50;4.80;;;16.10;99.90;;;;;;5071165;28;20032;-55
2022/06/27 03:41:23;;;;;;;11.18;4.85;;;16.10;99.90;;;;;;5071505;28;20077;-55
2022/06/27 03:43:48;;;;;;;9.35;4.85;;;16.30;99.90;;;;;;5071355;28;20027;-55
2022/06/27 03:46:14;;;;;;;9.88;4.40;;;16.40;99.90;;;;;;5071506;28;20039;-55
2022/06/27 03:51:24;;;;;;;10.73;5.00;;;16.40;99.90;;;;;;5071468;28;20117;-55
2022/06/27 03:53:49;;;;;;;9.10;5.22;;;16.50;99.90;;;;;;5071307;28;20075;-55
2022/06/27 03:56:15;;;;;;;7.45;5.13;;;16.60;99.90;;;;;;5071199;28;20051;-55
2022/06/27 03:58:40;;;;;;;11.43;4.97;;;16.50;99.90;;;;;;5071188;28;20117;-55
2022/06/27 04:01:06;;;;;;;9.45;5.40;;;16.30;99.90;;;;;;5071118;28;20032;-55
2022/06/27 04:03:32;;;;;;;6.40;4.90;;;16.30;99.90;;;;;;5071319;28;20497;-55
2022/06/27 04:05:57;;;;;;;14.27;5.65;;;16.30;99.90;;;;;;5071422;28;20473;-55
2022/06/27 04:08:23;;;;;;;8.63;5.25;;;16.10;99.90;;;;;;5073985;28;20032;-55
2022/06/27 04:10:49;;;;;;;9.88;5.63;;;16.10;99.90;;;;;;5075445;28;20035;-56
2022/06/27 04:13:15;;;;;;;6.43;5.18;;;16.10;99.90;;;;;;5075342;28;20052;-55
2022/06/27 04:15:40;;;;;;;7.45;5.20;;;15.90;99.90;;;;;;5075082;28;20032;-55
2022/06/27 04:18:06;;;;;;;10.23;4.93;;;15.90;99.90;;;;;;5075024;28;20112;-55
2022/06/27 04:20:32;;;;;;;10.60;5.57;;;15.90;99.90;;;;;;5074800;28;20036;-53
2022/06/27 04:22:57;;;;;;;11.80;5.30;;;15.90;99.90;;;;;;5074976;28;20063;-55
2022/06/27 04:25:23;;;;;;;8.20;5.20;;;16.10;99.90;;;;;;5075206;28;20020;-55
2022/06/27 04:27:48;;;;;;;9.60;5.25;;;16.10;99.90;;;;;;5073953;28;20078;-54
2022/06/27 04:30:17;;;;;;;8.55;4.90;;;16.10;99.90;;;;;;5074774;28;20028;-54
2022/06/27 04:32:44;;;;;;;8.90;5.40;;;16.10;99.90;;;;;;5075297;28;20028;-54
2022/06/27 04:35:10;;;;;;;9.50;4.68;;;16.20;99.90;;;;;;5074812;28;20070;-54
2022/06/27 04:37:40;;;;;;;9.30;5.25;;;16.30;99.90;;;;;;5074777;28;20028;-55
2022/06/27 04:40:06;;;;;;;7.75;4.93;;;16.20;99.90;;;;;;5074602;28;20430;-55
2022/06/27 04:42:31;;;;;;;10.27;4.72;;;16.30;99.90;;;;;;5074627;28;20020;-55
2022/06/27 04:44:57;;;;;;;10.68;5.45;;;16.30;99.90;;;;;;5074599;28;20017;-55
2022/06/27 04:47:23;;;;;;;9.10;5.35;;;16.30;99.90;;;;;;5074256;28;20432;-55
2022/06/27 04:49:48;;;;;;;10.70;5.82;;;16.30;99.90;;;;;;5074118;28;20469;-55
2022/06/27 04:52:15;;;;;;;10.30;5.18;;;16.30;99.90;;;;;;5074189;28;20029;-55
2022/06/27 04:54:43;;;;;;;6.68;4.93;;;16.40;99.90;;;;;;5074347;28;20397;-55
2022/06/27 04:57:09;;;;;;;8.80;5.13;;;16.50;99.90;;;;;;5074206;28;20112;-55
2022/06/27 04:59:34;;;;;;;13.68;5.30;;;16.30;99.90;;;;;;5073936;28;20060;-55
2022/06/27 05:02:00;;;;;;;9.77;5.25;;;16.40;99.90;;;;;;5074279;28;20028;-55
2022/06/27 05:04:28;;;;;;;8.43;5.22;;;16.50;99.90;;;;;;5074612;28;20108;-54
2022/06/27 05:06:55;;;;;;;11.18;4.57;;;16.70;99.90;;;;;;5074298;28;20024;-55
2022/06/27 05:09:21;;;;;;;8.50;4.30;;;16.80;99.90;;;;;;5074658;28;20025;-55
2022/06/27 05:11:48;;;;;;;11.80;4.97;;;16.70;99.90;;;;;;5074119;28;20032;-55
2022/06/27 05:14:14;;;;;;;6.55;4.13;;;16.60;99.90;;;;;;5074313;28;20107;-55
2022/06/27 05:16:40;;;;;;;8.57;4.55;;;16.60;99.90;;;;;;5074237;28;20063;-55
2022/06/27 05:19:05;;;;;;;10.90;5.38;;;16.60;99.90;;;;;;5073336;28;20382;-55
2022/06/27 05:21:31;;;;;;;9.55;5.50;;;16.70;99.90;;;;;;5073917;28;20032;-55
2022/06/27 05:23:57;;;;;;;7.72;4.60;;;16.80;99.90;;;;;;5073931;28;20059;-55
2022/06/27 05:26:22;;;;;;;14.05;5.53;;;16.90;99.90;;;;;;5074009;28;20036;-55
2022/06/27 05:28:48;;;;;;;10.48;5.18;;;16.90;99.90;;;;;;5073951;28;20024;-54
2022/06/27 05:31:14;;;;;;;12.55;4.90;;;16.80;99.90;;;;;;5073687;28;20033;-55
2022/06/27 05:33:40;;;;;;;8.45;4.72;;;16.70;99.90;;;;;;5073700;28;20032;-54
2022/06/27 05:36:06;;;;;;;9.20;4.95;;;16.60;99.90;;;;;;5074057;28;20120;-55
2022/06/27 05:38:32;;;;;;;7.13;5.15;;;16.60;99.90;;;;;;5073768;28;20020;-54
2022/06/27 05:40:59;;;;;;;10.95;5.20;;;16.60;99.90;;;;;;5070637;28;20017;-54
2022/06/27 05:43:25;;;;;;;8.65;4.85;;;16.50;99.90;;;;;;5074547;28;20492;-55
2022/06/27 05:45:53;;;;;;;7.13;4.78;;;16.60;99.90;;;;;;5087824;28;20494;-55
2022/06/27 05:48:20;;;;;;;8.95;4.57;;;16.70;99.90;;;;;;5077588;28;20025;-55
2022/06/27 05:50:46;;;;;;;11.07;4.45;;;16.80;99.90;;;;;;5073432;28;20036;-55
2022/06/27 05:53:12;;;;;;;6.38;3.90;;;16.80;99.90;;;;;;5072771;28;20021;-55
2022/06/27 05:55:38;;;;;;;10.57;3.75;;;16.90;99.90;;;;;;5070092;28;20479;-55
2022/06/27 05:58:07;;;;;;;11.82;4.53;;;16.90;99.90;;;;;;5071756;28;20091;-55
2022/06/27 06:00:33;;;;;;;9.73;4.20;;;17.00;99.90;;;;;;5068834;28;20434;-55
2022/06/27 06:02:58;;;;;;;7.63;4.00;;;17.00;99.90;;;;;;5063578;28;20020;-55
2022/06/27 06:05:24;;;;;;;12.18;4.20;;;17.00;99.90;;;;;;5058614;28;20036;-56
2022/06/27 06:07:50;;;;;;;9.30;4.40;;;17.00;99.90;;;;;;5053915;28;20556;-54
2022/06/27 06:10:16;;;;;;;10.30;4.43;;;17.10;99.90;;;;;;5055609;28;20504;-56
2022/06/27 06:12:42;;;;;;;12.95;4.38;;;17.20;99.90;;;;;;5055323;28;20056;-55
2022/06/27 06:15:08;;;;;;;10.48;4.47;;;17.30;99.90;;;;;;5053822;28;20066;-60
2022/06/27 06:17:36;;;;;;;9.00;4.53;;;17.50;99.90;;;;;;5054044;28;20025;-56
2022/06/27 06:20:04;;;;;;;8.05;4.40;;;17.50;99.90;;;;;;5048046;28;20040;-56
2022/06/27 06:22:30;;;;;;;10.00;4.07;;;17.70;99.90;;;;;;5047600;28;20028;-55
2022/06/27 06:24:56;;;;;;;8.93;4.22;;;17.70;99.90;;;;;;5052708;28;20077;-55
2022/06/27 06:27:22;;;;;;;11.18;4.25;;;17.60;99.90;;;;;;5045149;28;20033;-56
2022/06/27 06:29:48;;;;;;;8.63;4.35;;;17.60;99.90;;;;;;5044916;28;20020;-55
2022/06/27 06:32:14;;;;;;;9.82;4.25;;;17.60;99.90;;;;;;5044109;28;20132;-54
2022/06/27 06:34:40;;;;;;;7.82;4.40;;;17.60;99.90;;;;;;5048360;28;20112;-55
2022/06/27 06:37:07;;;;;;;11.38;4.50;;;17.70;99.90;;;;;;5044797;28;20046;-56
2022/06/27 06:39:33;;;;;;;8.05;4.18;;;18.00;99.90;;;;;;5046366;28;20637;-55
2022/06/27 06:41:59;;;;;;;13.88;4.10;;;18.30;99.90;;;;;;5052135;28;20031;-55
2022/06/27 06:44:25;;;;;;;9.82;4.05;;;18.60;99.90;;;;;;5046713;28;20493;-56
2022/06/27 06:46:54;;;;;;;12.57;4.60;;;18.60;99.90;;;;;;5048635;28;20017;-56
2022/06/27 06:49:20;;;;;;;8.82;4.55;;;18.60;99.90;;;;;;5051150;28;20035;-56
2022/06/27 06:51:46;;;;;;;12.60;4.35;;;18.50;99.90;;;;;;5049803;28;20055;-55
2022/06/27 06:54:18;;;;;;;10.40;4.30;;;18.40;99.90;;;;;;5054838;28;20028;-55
2022/06/27 06:56:52;;;;;;;10.35;3.85;;;18.20;99.90;;;;;;5051656;28;20055;-55
2022/06/27 06:59:19;;;;;;;11.30;4.47;;;18.00;99.90;;;;;;5053688;28;20505;-55
2022/06/27 07:01:47;;;;;;;9.52;4.40;;;17.90;99.90;;;;;;5052459;28;20044;-54
2022/06/27 07:04:14;;;;;;;11.57;4.97;;;17.90;99.90;;;;;;5052687;28;20024;-53
2022/06/27 07:06:40;;;;;;;9.68;5.25;;;17.90;99.90;;;;;;5050486;28;20073;-53
2022/06/27 07:09:06;;;;;;;12.30;5.43;;;17.90;99.90;;;;;;5052974;28;20112;-53
2022/06/27 07:11:32;;;;;;;13.00;5.80;;;17.80;99.90;;;;;;5053256;28;20033;-52
2022/06/27 07:13:58;;;;;;;8.52;5.55;;;17.80;99.90;;;;;;5053691;28;20403;-53
2022/06/27 07:16:26;;;;;;;10.57;5.13;;;17.90;99.90;;;;;;5055030;28;20021;-53
2022/06/27 07:18:53;;;;;;;11.88;5.45;;;17.90;99.90;;;;;;5056273;28;20052;-54
2022/06/27 07:21:19;;;;;;;11.48;5.15;;;17.90;99.90;;;;;;5054258;28;20040;-54
2022/06/27 07:23:49;;;;;;;8.02;5.07;;;18.00;99.90;;;;;;5053256;28;20078;-54
2022/06/27 07:26:17;;;;;;;12.50;5.40;;;18.00;99.90;;;;;;5057720;28;20059;-54
2022/06/27 07:28:43;;;;;;;8.48;4.82;;;18.10;99.90;;;;;;5051699;28;20508;-54
2022/06/27 07:31:11;;;;;;;9.88;4.70;;;18.30;99.90;;;;;;5054937;28;20654;-54
2022/06/27 07:33:38;;;;;;;9.15;5.00;;;18.50;99.90;;;;;;5051281;28;20114;-52
2022/06/27 07:36:05;;;;;;;9.60;4.30;;;18.50;99.90;;;;;;5055466;28;20060;-54
2022/06/27 07:38:32;;;;;;;9.30;4.53;;;18.50;99.90;;;;;;5059531;28;20477;-54
2022/06/27 07:40:58;;;;;;;11.07;4.57;;;18.50;99.90;;;;;;5050090;28;20127;-54
2022/06/27 07:43:25;;;;;;;10.45;4.72;;;18.40;99.90;;;;;;5056206;28;20029;-54
2022/06/27 07:45:51;;;;;;;9.48;4.47;;;18.60;99.90;;;;;;5056346;28;20082;-54
2022/06/27 07:48:20;;;;;;;8.57;4.80;;;18.70;99.90;;;;;;5050920;28;20036;-59
2022/06/27 07:50:46;;;;;;;10.27;4.57;;;18.70;99.90;;;;;;5051425;28;20111;-54
2022/06/27 07:53:17;;;;;;;12.57;5.03;;;18.70;99.90;;;;;;5052516;28;21194;-54
2022/06/27 07:55:50;;;;;;;10.02;4.72;;;18.80;99.90;;;;;;5058918;28;20044;-54
2022/06/27 07:58:18;;;;;;;9.13;5.10;;;18.70;99.90;;;;;;5054056;28;20037;-54
2022/06/27 08:00:46;;;;;;;11.15;5.30;;;18.60;99.90;;;;;;5050806;28;20037;-54
2022/06/27 08:05:57;;;;;;;9.15;5.70;;;18.40;99.90;;;;;;5054341;28;21651;-54
2022/06/27 08:08:23;;;;;;;13.90;6.35;;;18.30;99.90;;;;;;5055044;28;20029;-54
2022/06/27 08:10:54;;;;;;;11.43;5.97;;;18.20;99.90;;;;;;5051949;28;20032;-55
2022/06/27 08:13:20;;;;;;;14.40;6.10;;;18.20;99.90;;;;;;5054546;28;20036;-53
2022/06/27 08:15:47;;;;;;;14.10;5.35;;;18.20;99.90;;;;;;5061222;28;20041;-53
2022/06/27 08:18:15;;;;;;;15.45;5.40;;;18.20;99.90;;;;;;5063511;28;20365;-53
2022/06/27 08:20:42;;;;;;;15.30;6.05;;;18.10;99.90;;;;;;5064173;28;20025;-53
2022/06/27 08:23:09;;;;;;;11.68;5.63;;;18.10;99.90;;;;;;5060638;28;20028;-54
2022/06/27 08:25:35;;;;;;;12.82;5.70;;;18.10;99.90;;;;;;5056152;28;20091;-54
2022/06/27 08:28:01;;;;;;;11.68;5.40;;;18.10;99.90;;;;;;5060560;28;20052;-54
2022/06/27 08:30:27;;;;;;;14.38;5.28;;;18.20;99.90;;;;;;5067252;28;20067;-54
2022/06/27 08:32:55;;;;;;;15.43;5.25;;;18.20;99.90;;;;;;5067528;28;20097;-54
2022/06/27 08:35:22;;;;;;;15.07;5.60;;;18.20;99.90;;;;;;5060704;28;20032;-54
2022/06/27 08:37:50;;;;;;;13.68;4.90;;;18.20;99.90;;;;;;5055385;28;20520;-53
2022/06/27 08:40:17;;;;;;;14.18;5.25;;;18.30;99.90;;;;;;5062833;28;20111;-55
2022/06/27 08:42:44;;;;;;;14.35;5.07;;;18.30;99.90;;;;;;5068356;28;20026;-54
2022/06/27 08:45:15;;;;;;;17.05;4.63;;;18.40;99.90;;;;;;5075268;28;20085;-54
2022/06/27 08:47:41;;;;;;;10.63;4.47;;;18.40;99.90;;;;;;5058092;28;20028;-54
2022/06/27 08:50:08;;;;;;;14.63;4.95;;;18.30;99.90;;;;;;5060213;28;20031;-54
2022/06/27 08:52:39;;;;;;;12.18;4.40;;;18.40;99.90;;;;;;5057423;28;20584;-54
2022/06/27 08:55:09;;;;;;;7.85;4.45;;;18.40;99.90;;;;;;5057063;28;20090;-54
2022/06/27 08:57:37;;;;;;;16.75;4.53;;;18.30;99.90;;;;;;5061118;28;20041;-54
2022/06/27 09:00:10;;;;;;;15.70;5.13;;;18.20;99.90;;;;;;5059775;28;20487;-54
2022/06/27 09:02:42;;;;;;;14.73;5.07;;;18.30;99.90;;;;;;5059057;28;20032;-54
2022/06/27 09:05:15;;;;;;;19.03;5.03;;;18.40;99.90;;;;;;5057253;28;20029;-54
2022/06/27 09:07:59;;;;;;;10.98;4.70;;;18.30;99.90;;;;;;5058037;28;20032;-54
2022/06/27 09:10:43;;;;;;;15.82;4.93;;;18.30;99.90;;;;;;5058239;28;20497;-52
2022/06/27 09:13:12;;;;;;;14.70;5.45;;;18.30;99.90;;;;;;5058906;28;20104;-52
2022/06/27 09:15:37;;;;;;;11.10;5.25;;;18.30;99.90;;;;;;5061169;28;20493;-52
2022/06/27 09:18:08;;;;;;;15.98;5.43;;;18.30;99.90;;;;;;5064077;28;20028;-54
2022/06/27 09:20:58;;;;;;;18.08;5.60;;;18.30;99.90;;;;;;5056985;28;20041;-52
2022/06/27 09:23:47;;;;;;;11.52;5.32;;;18.20;99.90;;;;;;5058665;28;20027;-54
2022/06/27 09:26:13;;;;;;;17.08;5.50;;;18.20;99.90;;;;;;5055756;28;20037;-55
2022/06/27 09:29:06;;;;;;;14.02;5.35;;;18.30;99.90;;;;;;5058554;28;20032;-54
2022/06/27 09:31:33;;;;;;;;;;;18.40;99.90;;;;;;5054503;28;20487;-52
2022/06/27 09:34:14;;;;;;;13.80;5.20;;;18.60;99.90;;;;;;5061382;28;19912;-54
2022/06/27 09:36:48;;;;;;;10.90;4.95;;;18.60;99.90;;;;;;5057938;28;20054;-53
2022/06/27 09:39:35;;;;;;;12.63;5.13;;;18.60;99.90;;;;;;5058137;28;20036;-53
2022/06/27 09:42:10;;;;;;;22.17;5.60;;;18.60;99.90;;;;;;5057904;28;20044;-54
2022/06/27 09:44:45;;;;;;;11.02;5.38;;;18.70;99.90;;;;;;5059469;28;20028;-53
2022/06/27 09:47:17;;;;;;;11.80;4.63;;;18.90;99.90;;;;;;5062594;28;20028;-53
2022/06/27 09:49:45;;;;;;;13.02;4.35;;;19.30;99.90;;;;;;5057396;28;20029;-54
2022/06/27 09:52:17;;;;;;;21.13;4.32;;;19.70;99.90;;;;;;5057451;28;20592;-54
2022/06/27 09:54:45;;;;;;;;;;;20.10;99.90;;;;;;5056721;28;20040;-54
2022/06/27 09:57:12;;;;;;;13.25;3.92;;;20.10;99.90;;;;;;5056873;28;19909;-54
2022/06/27 09:59:39;;;;;;;13.07;4.03;;;19.70;99.90;;;;;;5061086;28;20024;-54
2022/06/27 10:02:06;;;;;;;15.75;4.20;;;19.50;99.90;;;;;;5059096;28;20111;-54
2022/06/27 10:04:35;;;;;;;16.13;4.20;;;19.30;99.90;;;;;;5056353;28;20064;-54
2022/06/27 10:07:03;;;;;;;11.73;4.15;;;19.40;99.90;;;;;;5057560;28;20036;-54
2022/06/27 10:09:31;;;;;;;19.38;4.78;;;19.30;99.90;;;;;;5056503;28;20081;-54
2022/06/27 10:12:24;;;;;;;21.23;5.00;;;19.30;99.90;;;;;;5057035;28;20504;-55
2022/06/27 10:15:11;;;;;;;21.77;5.05;;;19.30;99.90;;;;;;5054492;28;20043;-54
2022/06/27 10:17:43;;;;;;;15.45;5.32;;;19.10;99.90;;;;;;5056499;28;20035;-52
2022/06/27 10:20:36;;;;;;;16.90;4.72;;;18.90;99.90;;;;;;5057551;28;20067;-52
2022/06/27 10:23:13;;;;;;;9.93;4.53;;;18.90;99.90;;;;;;5055186;28;20767;-54
2022/06/27 10:25:40;;;;;;;15.23;4.88;;;18.80;99.90;;;;;;5057031;28;20028;-54
2022/06/27 10:28:12;;;;;;;19.60;5.10;;;18.80;99.90;;;;;;5056250;28;20085;-54
2022/06/27 10:30:43;;;;;;;15.35;5.50;;;18.70;99.90;;;;;;5055827;28;20039;-53
2022/06/27 10:33:21;;;;;;;11.90;5.72;;;18.50;99.90;;;;;;5058132;28;20668;-54
2022/06/27 10:35:59;;;;;;;19.30;5.97;;;18.10;99.90;;;;;;5059591;28;20036;-51
2022/06/27 10:38:30;;;;;;;19.40;6.82;;;17.90;99.90;;;;;;5059934;28;20028;-50
2022/06/27 10:40:56;;;;;;;16.40;7.43;;;17.60;99.90;;;;;;5055021;28;20029;-54
2022/06/27 10:43:50;;;;;;;14.25;7.28;;;17.30;99.90;;;;;;5055571;28;20028;-53
2022/06/27 10:46:16;;;;;;;16.50;7.47;;;17.20;99.90;;;;;;5055688;28;20497;-54
2022/06/27 10:48:48;;;;;;;18.33;7.53;;;17.10;99.90;;;;;;5058393;28;20032;-56
2022/06/27 10:51:29;;;;;;;26.33;8.82;;;17.00;99.90;;;;;;5055874;28;20032;-56
2022/06/27 10:54:04;;;;;;;26.43;8.47;;;17.00;99.90;;;;;;5058372;28;20043;-54
2022/06/27 10:56:30;;;;;;;16.52;8.50;;;17.00;99.90;;;;;;5058441;28;20048;-56
2022/06/27 10:58:56;;;;;;;18.55;8.98;;;16.80;99.90;;;;;;5055602;28;20028;-58
2022/06/27 11:01:22;;;;;;;12.00;7.93;;;16.70;99.90;;;;;;5054422;28;20033;-64
2022/06/27 11:03:50;;;;;;;15.32;8.65;;;16.50;99.90;;;;;;5057490;28;20434;-61
2022/06/27 11:06:16;;;;;;;16.35;8.90;;;16.50;99.90;;;;;;5055891;28;20032;-60
2022/06/27 11:08:45;;;;;;;15.80;8.27;;;16.50;99.90;;;;;;5056236;28;20078;-60
2022/06/27 11:11:26;;;;;;;17.38;8.50;;;16.50;99.90;;;;;;5051672;28;20706;-58
2022/06/27 11:13:56;;;;;;;18.30;9.50;;;16.60;99.90;;;;;;5053558;28;20453;-56
2022/06/27 11:16:23;;;;;;;13.63;8.55;;;16.60;99.90;;;;;;5055878;28;20548;-55
2022/06/27 11:18:59;;;;;;;16.00;9.55;;;16.60;99.90;;;;;;5056984;28;20028;-55
2022/06/27 11:21:33;;;;;;;20.80;10.05;;;16.60;99.90;;;;;;5055443;28;20044;-54
2022/06/27 11:24:04;;;;;;;23.85;11.52;;;16.60;99.90;;;;;;5059352;28;20082;-53
2022/06/27 11:26:32;;;;;;;15.80;6.28;;;16.80;99.90;;;;;;5055911;28;20630;-58
2022/06/27 11:32:06;;;;;;;15.23;5.07;;;16.00;99.90;;;;;;5058575;28;20031;-63
2022/06/27 11:34:34;;;;;;;10.93;4.45;;;15.60;99.90;;;;;;5062198;28;20124;-59
2022/06/27 11:37:02;;;;;;;8.20;4.30;;;15.40;99.90;;;;;;5053196;28;20115;-61
2022/06/27 11:39:30;;;;;;;5.93;3.33;;;15.30;99.90;;;;;;5052666;28;20792;-58
2022/06/27 11:42:01;;;;;;;7.88;3.15;;;15.20;99.90;;;;;;5057278;28;20100;-56
2022/06/27 11:44:29;;;;;;;7.63;3.08;;;15.00;99.90;;;;;;5054664;28;20028;-55
2022/06/27 11:47:07;;;;;;;6.45;2.40;;;14.90;99.90;;;;;;5057572;28;20132;-54
2022/06/27 11:49:35;;;;;;;6.15;2.00;;;14.70;99.90;;;;;;5049902;28;20123;-54
2022/06/27 11:52:09;;;;;;;5.13;2.58;;;14.60;99.90;;;;;;5052135;28;20063;-56
2022/06/27 11:54:45;;;;;;;6.95;2.10;;;14.60;99.90;;;;;;5053098;28;20049;-56
2022/06/27 11:57:22;;;;;;;4.60;2.20;;;14.60;99.90;;;;;;5053310;28;20039;-55
2022/06/27 11:59:49;;;;;;;8.00;2.33;;;14.70;99.90;;;;;;5054548;28;20040;-55
2022/06/27 12:02:27;;;;;;;8.65;2.40;;;14.70;99.90;;;;;;5052810;28;20061;-52
2022/06/27 12:05:11;;;;;;;5.75;2.30;;;14.70;99.90;;;;;;5053494;28;20464;-53
2022/06/27 12:07:55;;;;;;;4.72;2.03;;;14.70;99.90;;;;;;5053922;28;20029;-53
2022/06/27 12:10:33;;;;;;;7.90;2.38;;;14.80;99.90;;;;;;5053432;28;20021;-53
2022/06/27 12:12:59;;;;;;;5.00;1.85;;;15.00;99.90;;;;;;5053164;28;20028;-54
2022/06/27 12:15:26;;;;;;;3.60;2.05;;;15.10;99.90;;;;;;5060729;28;20043;-53
2022/06/27 12:17:56;;;;;;;5.10;1.70;;;15.30;99.90;;;;;;5059101;28;20081;-52
2022/06/27 12:20:22;;;;;;;3.80;1.52;;;15.30;99.90;;;;;;5054298;28;20501;-54
2022/06/27 12:22:48;;;;;;;3.78;1.50;;;15.30;99.90;;;;;;5053891;28;20112;-53
2022/06/27 12:25:14;;;;;;;3.08;1.33;;;15.40;99.90;;;;;;5054549;28;20058;-53
2022/06/27 12:27:41;;;;;;;4.13;1.60;;;15.50;99.90;;;;;;5053145;28;20025;-52
2022/06/27 12:30:07;;;;;;;4.65;1.40;;;15.50;99.90;;;;;;5054292;28;20476;-50
2022/06/27 12:32:33;;;;;;;3.85;1.60;;;15.60;99.90;;;;;;5055758;28;20068;-50
2022/06/27 12:34:58;;;;;;;3.85;1.35;;;15.70;99.90;;;;;;5055379;28;20052;-50
2022/06/27 12:37:24;;;;;;;3.42;1.40;;;15.90;99.90;;;;;;5060001;28;20028;-50
2022/06/27 12:39:50;;;;;;;3.15;1.23;;;16.00;99.90;;;;;;5058630;28;20090;-50
2022/06/27 12:42:15;;;;;;;3.70;1.25;;;16.10;99.90;;;;;;5052360;28;20031;-50
2022/06/27 12:44:41;;;;;;;2.42;1.13;;;16.40;99.90;;;;;;5058591;28;20043;-51
2022/06/27 12:47:07;;;;;;;4.97;1.60;;;16.60;99.90;;;;;;5058400;28;20073;-50
2022/06/27 12:49:33;;;;;;;5.15;1.40;;;17.10;99.90;;;;;;5054030;28;20041;-52
2022/06/27 12:51:58;;;;;;;2.58;1.10;;;17.30;99.90;;;;;;5054978;28;20094;-53
2022/06/27 12:54:24;;;;;;;3.35;1.20;;;17.70;99.90;;;;;;5051540;28;20057;-53
2022/06/27 12:56:49;;;;;;;1.58;0.90;;;18.80;99.90;;;;;;5059063;28;20036;-52
2022/06/27 12:59:15;;;;;;;3.15;1.17;;;20.40;99.90;;;;;;5054002;28;20033;-52